Terminal Aerodrome Forecast
Issued by NWS Louisville, KY

Home | Current Version | Previous Version | Text Only | Print | Product List | Glossary On
Versions: 1 2 3 4 5 6 7 8 9 10 11 12 13 14 15 16 17 18 19
941
FTUS43 KLMK 200531
TAFSDF
TAF
KSDF 200531Z 2006/2112 15004KT P6SM SKC
     FM200900 14005KT P6SM BKN040
     FM202100 19008KT P6SM VCSH BKN035
     FM210100 20005KT P6SM -SHRA BKN015
     FM210600 28006KT 4SM BR OVC010=

USA.gov is the U.S. government's official web portal to all federal, state and local government web resources and services.